sensor_id;sensor_type;location;lat;lon;timestamp;pressure;altitude;pressure_sealevel;temperature;humidity
73267;BME280;61495;53.400;7.608;2023-08-08T00:01:49;101029.59;;;13.27;90.84
73267;BME280;61495;53.400;7.608;2023-08-08T00:04:15;101031.06;;;13.23;90.91
73267;BME280;61495;53.400;7.608;2023-08-08T00:06:40;101020.88;;;13.25;90.61
73267;BME280;61495;53.400;7.608;2023-08-08T00:09:06;101022.38;;;13.21;90.95
73267;BME280;61495;53.400;7.608;2023-08-08T00:11:32;101032.72;;;13.24;90.42
73267;BME280;61495;53.400;7.608;2023-08-08T00:13:58;101024.84;;;13.22;89.24
73267;BME280;61495;53.400;7.608;2023-08-08T00:16:23;101030.63;;;13.26;91.49
73267;BME280;61495;53.400;7.608;2023-08-08T00:18:49;101032.31;;;13.20;92.84
73267;BME280;61495;53.400;7.608;2023-08-08T00:21:17;101025.22;;;13.26;93.98
73267;BME280;61495;53.400;7.608;2023-08-08T00:23:43;101019.41;;;13.29;91.73
73267;BME280;61495;53.400;7.608;2023-08-08T00:26:08;101007.44;;;13.25;92.65
73267;BME280;61495;53.400;7.608;2023-08-08T00:28:34;101008.22;;;13.32;93.37
73267;BME280;61495;53.400;7.608;2023-08-08T00:30:59;101004.53;;;13.26;95.27
73267;BME280;61495;53.400;7.608;2023-08-08T00:33:25;100997.50;;;13.25;94.44
73267;BME280;61495;53.400;7.608;2023-08-08T00:35:51;101018.16;;;13.31;94.88
73267;BME280;61495;53.400;7.608;2023-08-08T00:38:16;101009.69;;;13.28;93.31
73267;BME280;61495;53.400;7.608;2023-08-08T00:40:44;101020.63;;;13.33;94.27
73267;BME280;61495;53.400;7.608;2023-08-08T00:43:10;101032.59;;;13.37;93.10
73267;BME280;61495;53.400;7.608;2023-08-08T00:45:36;101023.47;;;13.38;91.86
73267;BME280;61495;53.400;7.608;2023-08-08T00:48:01;101019.75;;;13.39;93.73
73267;BME280;61495;53.400;7.608;2023-08-08T00:50:27;101039.56;;;13.45;93.67
73267;BME280;61495;53.400;7.608;2023-08-08T00:52:53;101030.22;;;13.47;95.33
73267;BME280;61495;53.400;7.608;2023-08-08T00:55:19;101024.41;;;13.50;94.09
73267;BME280;61495;53.400;7.608;2023-08-08T00:57:45;101024.84;;;13.47;92.73
73267;BME280;61495;53.400;7.608;2023-08-08T01:00:11;101006.44;;;13.44;94.28
73267;BME280;61495;53.400;7.608;2023-08-08T01:02:37;101016.31;;;13.50;93.86
73267;BME280;61495;53.400;7.608;2023-08-08T01:05:05;101004.50;;;13.51;95.34
73267;BME280;61495;53.400;7.608;2023-08-08T01:07:47;101001.81;;;13.51;94.58
73267;BME280;61495;53.400;7.608;2023-08-08T01:10:24;101010.50;;;13.53;95.66
73267;BME280;61495;53.400;7.608;2023-08-08T01:12:55;101035.31;;;13.55;95.35
73267;BME280;61495;53.400;7.608;2023-08-08T01:15:22;101022.91;;;13.54;95.41
73267;BME280;61495;53.400;7.608;2023-08-08T01:17:49;101017.91;;;13.58;94.34
73267;BME280;61495;53.400;7.608;2023-08-08T01:20:16;101002.72;;;13.63;95.43
73267;BME280;61495;53.400;7.608;2023-08-08T01:22:52;100996.16;;;13.59;95.25
73267;BME280;61495;53.400;7.608;2023-08-08T01:25:21;100998.84;;;13.59;95.81
73267;BME280;61495;53.400;7.608;2023-08-08T01:27:47;100987.84;;;13.61;94.86
73267;BME280;61495;53.400;7.608;2023-08-08T01:30:13;100984.75;;;13.57;93.73
73267;BME280;61495;53.400;7.608;2023-08-08T01:32:53;100981.63;;;13.60;94.26
73267;BME280;61495;53.400;7.608;2023-08-08T01:35:18;100985.38;;;13.59;92.81
73267;BME280;61495;53.400;7.608;2023-08-08T01:37:50;100980.59;;;13.61;92.43
73267;BME280;61495;53.400;7.608;2023-08-08T01:40:18;100971.53;;;13.56;92.78
73267;BME280;61495;53.400;7.608;2023-08-08T01:42:46;100970.84;;;13.60;92.88
73267;BME280;61495;53.400;7.608;2023-08-08T01:45:13;100958.91;;;13.56;92.09
73267;BME280;61495;53.400;7.608;2023-08-08T01:47:39;100971.69;;;13.61;92.79
73267;BME280;61495;53.400;7.608;2023-08-08T01:50:05;100966.75;;;13.58;93.82
73267;BME280;61495;53.400;7.608;2023-08-08T01:52:31;100968.16;;;13.60;93.26
73267;BME280;61495;53.400;7.608;2023-08-08T01:54:57;100942.97;;;13.55;93.85
73267;BME280;61495;53.400;7.608;2023-08-08T01:57:22;100952.47;;;13.57;94.42
73267;BME280;61495;53.400;7.608;2023-08-08T01:59:48;100950.59;;;13.58;94.38
73267;BME280;61495;53.400;7.608;2023-08-08T02:02:16;100939.88;;;13.51;95.10
73267;BME280;61495;53.400;7.608;2023-08-08T02:04:44;100948.72;;;13.58;94.87
73267;BME280;61495;53.400;7.608;2023-08-08T02:07:09;100938.41;;;13.55;93.14
73267;BME280;61495;53.400;7.608;2023-08-08T02:09:35;100943.94;;;13.60;94.97
73267;BME280;61495;53.400;7.608;2023-08-08T02:12:00;100935.13;;;13.53;94.50
73267;BME280;61495;53.400;7.608;2023-08-08T02:14:26;100937.50;;;13.61;93.58
73267;BME280;61495;53.400;7.608;2023-08-08T02:16:51;100920.16;;;13.57;94.61
73267;BME280;61495;53.400;7.608;2023-08-08T02:19:17;100919.34;;;13.57;96.42
73267;BME280;61495;53.400;7.608;2023-08-08T02:21:43;100928.78;;;13.66;96.72
73267;BME280;61495;53.400;7.608;2023-08-08T02:24:08;100925.09;;;13.60;96.44
73267;BME280;61495;53.400;7.608;2023-08-08T02:26:34;100934.81;;;13.61;94.59
73267;BME280;61495;53.400;7.608;2023-08-08T02:28:59;100945.13;;;13.64;93.61
73267;BME280;61495;53.400;7.608;2023-08-08T02:31:25;100931.69;;;13.64;95.79
73267;BME280;61495;53.400;7.608;2023-08-08T02:33:51;100925.09;;;13.60;96.13
73267;BME280;61495;53.400;7.608;2023-08-08T02:36:17;100918.53;;;13.56;95.87
73267;BME280;61495;53.400;7.608;2023-08-08T02:38:43;100934.22;;;13.59;96.72
73267;BME280;61495;53.400;7.608;2023-08-08T02:41:09;100920.91;;;13.64;96.85
73267;BME280;61495;53.400;7.608;2023-08-08T02:43:34;100925.91;;;13.61;94.77
73267;BME280;61495;53.400;7.608;2023-08-08T02:46:00;100907.31;;;13.59;95.33
73267;BME280;61495;53.400;7.608;2023-08-08T02:48:29;100901.84;;;13.66;96.35
73267;BME280;61495;53.400;7.608;2023-08-08T02:50:55;100925.03;;;13.67;96.41
73267;BME280;61495;53.400;7.608;2023-08-08T02:53:21;100902.75;;;13.60;95.69
73267;BME280;61495;53.400;7.608;2023-08-08T02:55:47;100897.25;;;13.66;97.40
73267;BME280;61495;53.400;7.608;2023-08-08T02:58:14;100894.44;;;13.61;96.01
73267;BME280;61495;53.400;7.608;2023-08-08T03:00:46;100896.22;;;13.67;96.74
73267;BME280;61495;53.400;7.608;2023-08-08T03:03:11;100893.97;;;13.64;94.58
73267;BME280;61495;53.400;7.608;2023-08-08T03:05:37;100909.47;;;13.69;94.37
73267;BME280;61495;53.400;7.608;2023-08-08T03:08:03;100886.50;;;13.66;95.75
73267;BME280;61495;53.400;7.608;2023-08-08T03:10:28;100883.22;;;13.64;95.81
73267;BME280;61495;53.400;7.608;2023-08-08T03:12:54;100884.13;;;13.58;95.49
73267;BME280;61495;53.400;7.608;2023-08-08T03:15:20;100880.75;;;13.63;95.49
73267;BME280;61495;53.400;7.608;2023-08-08T03:17:46;100883.81;;;13.66;94.22
73267;BME280;61495;53.400;7.608;2023-08-08T03:20:11;100870.22;;;13.61;93.92
73267;BME280;61495;53.400;7.608;2023-08-08T03:22:37;100882.19;;;13.65;95.42
73267;BME280;61495;53.400;7.608;2023-08-08T03:25:03;100874.56;;;13.62;95.83
73267;BME280;61495;53.400;7.608;2023-08-08T03:27:30;100877.84;;;13.64;93.96
73267;BME280;61495;53.400;7.608;2023-08-08T03:29:56;100879.09;;;13.62;95.67
73267;BME280;61495;53.400;7.608;2023-08-08T03:32:24;100875.59;;;13.61;97.58
73267;BME280;61495;53.400;7.608;2023-08-08T03:34:50;100872.91;;;13.61;96.14
73267;BME280;61495;53.400;7.608;2023-08-08T03:37:15;100858.22;;;13.57;97.11
73267;BME280;61495;53.400;7.608;2023-08-08T03:39:41;100869.16;;;13.62;94.90
73267;BME280;61495;53.400;7.608;2023-08-08T03:42:07;100874.19;;;13.59;94.94
73267;BME280;61495;53.400;7.608;2023-08-08T03:44:33;100887.63;;;13.59;96.79
73267;BME280;61495;53.400;7.608;2023-08-08T03:46:58;100873.81;;;13.55;96.36
73267;BME280;61495;53.400;7.608;2023-08-08T03:49:25;100878.28;;;13.61;96.50
73267;BME280;61495;53.400;7.608;2023-08-08T03:51:51;100871.09;;;13.55;97.33
73267;BME280;61495;53.400;7.608;2023-08-08T03:54:17;100881.22;;;13.60;97.84
73267;BME280;61495;53.400;7.608;2023-08-08T03:56:44;100882.25;;;13.59;97.50
73267;BME280;61495;53.400;7.608;2023-08-08T03:59:09;100883.28;;;13.58;98.22
73267;BME280;61495;53.400;7.608;2023-08-08T04:01:40;100885.31;;;13.62;97.53
73267;BME280;61495;53.400;7.608;2023-08-08T04:04:06;100878.72;;;13.58;97.82
73267;BME280;61495;53.400;7.608;2023-08-08T04:06:31;100867.50;;;13.61;97.60
73267;BME280;61495;53.400;7.608;2023-08-08T04:08:57;100866.94;;;13.59;98.16
73267;BME280;61495;53.400;7.608;2023-08-08T04:11:22;100850.97;;;13.58;96.56
73267;BME280;61495;53.400;7.608;2023-08-08T04:13:48;100856.81;;;13.55;97.84
73267;BME280;61495;53.400;7.608;2023-08-08T04:16:14;100857.78;;;13.60;97.34
73267;BME280;61495;53.400;7.608;2023-08-08T04:18:39;100852.25;;;13.55;97.07
73267;BME280;61495;53.400;7.608;2023-08-08T04:21:08;100856.59;;;13.56;97.48
73267;BME280;61495;53.400;7.608;2023-08-08T04:23:35;100857.34;;;13.63;98.13
73267;BME280;61495;53.400;7.608;2023-08-08T04:26:00;100844.19;;;13.55;96.56
73267;BME280;61495;53.400;7.608;2023-08-08T04:28:26;100853.22;;;13.61;97.89
73267;BME280;61495;53.400;7.608;2023-08-08T04:31:06;100835.22;;;13.61;96.00
73267;BME280;61495;53.400;7.608;2023-08-08T04:33:32;100846.81;;;13.62;95.46
73267;BME280;61495;53.400;7.608;2023-08-08T04:36:00;100827.44;;;13.53;95.33
73267;BME280;61495;53.400;7.608;2023-08-08T04:38:25;100861.69;;;13.64;95.80
73267;BME280;61495;53.400;7.608;2023-08-08T04:40:51;100834.47;;;13.54;96.94
73267;BME280;61495;53.400;7.608;2023-08-08T04:43:16;100844.94;;;13.62;96.97
73267;BME280;61495;53.400;7.608;2023-08-08T04:45:42;100839.09;;;13.65;97.12
73267;BME280;61495;53.400;7.608;2023-08-08T04:48:07;100840.13;;;13.64;96.51
73267;BME280;61495;53.400;7.608;2023-08-08T04:50:33;100833.09;;;13.63;97.41
73267;BME280;61495;53.400;7.608;2023-08-08T04:52:58;100835.97;;;13.68;98.36
73267;BME280;61495;53.400;7.608;2023-08-08T04:55:24;100835.13;;;13.68;97.78
73267;BME280;61495;53.400;7.608;2023-08-08T04:57:50;100830.56;;;13.68;98.63
73267;BME280;61495;53.400;7.608;2023-08-08T05:00:16;100830.78;;;13.67;99.82
73267;BME280;61495;53.400;7.608;2023-08-08T05:02:41;100817.78;;;13.64;99.03
73267;BME280;61495;53.400;7.608;2023-08-08T05:05:07;100814.03;;;13.65;100.00
73267;BME280;61495;53.400;7.608;2023-08-08T05:07:34;100811.09;;;13.66;99.61
73267;BME280;61495;53.400;7.608;2023-08-08T05:10:03;100805.72;;;13.66;99.83
73267;BME280;61495;53.400;7.608;2023-08-08T05:12:28;100807.97;;;13.69;100.00
73267;BME280;61495;53.400;7.608;2023-08-08T05:14:54;100805.44;;;13.74;99.20
73267;BME280;61495;53.400;7.608;2023-08-08T05:17:20;100811.59;;;13.75;99.32
73267;BME280;61495;53.400;7.608;2023-08-08T05:19:46;100810.94;;;13.79;99.73
73267;BME280;61495;53.400;7.608;2023-08-08T05:22:11;100801.38;;;13.83;99.78
73267;BME280;61495;53.400;7.608;2023-08-08T05:24:37;100800.69;;;14.00;99.88
73267;BME280;61495;53.400;7.608;2023-08-08T05:27:04;100803.06;;;14.08;99.46
73267;BME280;61495;53.400;7.608;2023-08-08T05:29:33;100801.66;;;14.17;98.54
73267;BME280;61495;53.400;7.608;2023-08-08T05:31:59;100793.72;;;14.22;98.39
73267;BME280;61495;53.400;7.608;2023-08-08T05:34:25;100797.88;;;14.36;99.44
73267;BME280;61495;53.400;7.608;2023-08-08T05:36:50;100800.22;;;14.44;98.55
73267;BME280;61495;53.400;7.608;2023-08-08T05:39:16;100795.44;;;14.46;98.43
73267;BME280;61495;53.400;7.608;2023-08-08T05:41:41;100794.38;;;14.59;98.47
73267;BME280;61495;53.400;7.608;2023-08-08T05:44:07;100797.06;;;14.70;98.22
73267;BME280;61495;53.400;7.608;2023-08-08T05:46:32;100798.81;;;14.76;97.64
73267;BME280;61495;53.400;7.608;2023-08-08T05:48:58;100788.41;;;14.68;96.66
73267;BME280;61495;53.400;7.608;2023-08-08T05:51:23;100806.44;;;14.79;96.22
73267;BME280;61495;53.400;7.608;2023-08-08T05:53:49;100794.03;;;14.67;96.03
73267;BME280;61495;53.400;7.608;2023-08-08T05:56:14;100790.28;;;14.56;96.05
73267;BME280;61495;53.400;7.608;2023-08-08T05:58:40;100814.66;;;14.61;96.13
73267;BME280;61495;53.400;7.608;2023-08-08T06:01:09;100812.22;;;14.60;96.54
73267;BME280;61495;53.400;7.608;2023-08-08T06:03:36;100829.56;;;14.64;96.84
73267;BME280;61495;53.400;7.608;2023-08-08T06:06:05;100824.28;;;14.57;96.63
73267;BME280;61495;53.400;7.608;2023-08-08T06:08:31;100832.94;;;14.59;96.78
73267;BME280;61495;53.400;7.608;2023-08-08T06:10:57;100828.03;;;14.56;97.31
73267;BME280;61495;53.400;7.608;2023-08-08T06:13:23;100854.78;;;14.58;96.97
73267;BME280;61495;53.400;7.608;2023-08-08T06:15:48;100853.94;;;14.57;97.19
73267;BME280;61495;53.400;7.608;2023-08-08T06:18:14;100851.09;;;14.52;97.97
73267;BME280;61495;53.400;7.608;2023-08-08T06:20:40;100853.78;;;14.52;98.69
73267;BME280;61495;53.400;7.608;2023-08-08T06:23:06;100853.78;;;14.52;97.08
73267;BME280;61495;53.400;7.608;2023-08-08T06:25:32;100858.59;;;14.50;98.21
73267;BME280;61495;53.400;7.608;2023-08-08T06:27:57;100856.38;;;14.47;97.66
73267;BME280;61495;53.400;7.608;2023-08-08T06:30:23;100855.34;;;14.48;98.03
73267;BME280;61495;53.400;7.608;2023-08-08T06:32:49;100852.19;;;14.51;97.54
73267;BME280;61495;53.400;7.608;2023-08-08T06:35:14;100842.31;;;14.45;98.14
73267;BME280;61495;53.400;7.608;2023-08-08T06:37:42;100845.94;;;14.51;98.80
73267;BME280;61495;53.400;7.608;2023-08-08T06:40:09;100847.59;;;14.52;99.85
73267;BME280;61495;53.400;7.608;2023-08-08T06:42:37;100851.25;;;14.57;99.77
73267;BME280;61495;53.400;7.608;2023-08-08T06:45:04;100839.53;;;14.63;100.00
73267;BME280;61495;53.400;7.608;2023-08-08T06:47:32;100840.47;;;14.69;100.00
73267;BME280;61495;53.400;7.608;2023-08-08T06:49:58;100835.28;;;14.67;99.44
73267;BME280;61495;53.400;7.608;2023-08-08T06:52:23;100834.81;;;14.70;98.10
73267;BME280;61495;53.400;7.608;2023-08-08T06:54:52;100835.44;;;14.72;97.46
73267;BME280;61495;53.400;7.608;2023-08-08T06:57:17;100834.34;;;14.73;97.62
73267;BME280;61495;53.400;7.608;2023-08-08T06:59:43;100834.59;;;14.83;97.51
73267;BME280;61495;53.400;7.608;2023-08-08T07:02:08;100821.22;;;14.88;98.66
73267;BME280;61495;53.400;7.608;2023-08-08T07:04:35;100827.81;;;14.92;98.13
73267;BME280;61495;53.400;7.608;2023-08-08T07:07:00;100820.63;;;14.98;97.27
73267;BME280;61495;53.400;7.608;2023-08-08T07:09:26;100815.00;;;14.88;95.74
73267;BME280;61495;53.400;7.608;2023-08-08T07:11:51;100818.19;;;14.96;96.13
73267;BME280;61495;53.400;7.608;2023-08-08T07:14:17;100814.75;;;15.13;98.27
73267;BME280;61495;53.400;7.608;2023-08-08T07:16:42;100809.06;;;15.37;99.49
73267;BME280;61495;53.400;7.608;2023-08-08T07:19:08;100803.53;;;15.44;98.61
73267;BME280;61495;53.400;7.608;2023-08-08T07:21:33;100801.91;;;15.43;97.96
73267;BME280;61495;53.400;7.608;2023-08-08T07:23:59;100792.75;;;15.44;97.36
73267;BME280;61495;53.400;7.608;2023-08-08T07:26:24;100790.16;;;15.49;96.99
73267;BME280;61495;53.400;7.608;2023-08-08T07:28:50;100798.94;;;15.56;96.88
73267;BME280;61495;53.400;7.608;2023-08-08T07:31:20;100788.13;;;15.56;96.52
73267;BME280;61495;53.400;7.608;2023-08-08T07:33:45;100784.47;;;15.62;97.36
73267;BME280;61495;53.400;7.608;2023-08-08T07:36:11;100770.00;;;15.68;95.82
73267;BME280;61495;53.400;7.608;2023-08-08T07:38:36;100775.03;;;15.76;95.41
73267;BME280;61495;53.400;7.608;2023-08-08T07:41:03;100777.81;;;15.81;94.12
73267;BME280;61495;53.400;7.608;2023-08-08T07:43:29;100765.63;;;15.79;93.56
73267;BME280;61495;53.400;7.608;2023-08-08T07:45:55;100763.91;;;15.89;94.21
73267;BME280;61495;53.400;7.608;2023-08-08T07:48:23;100772.94;;;16.11;94.43
73267;BME280;61495;53.400;7.608;2023-08-08T07:50:49;100765.91;;;16.10;92.74
73267;BME280;61495;53.400;7.608;2023-08-08T07:53:14;100755.09;;;16.27;93.93
73267;BME280;61495;53.400;7.608;2023-08-08T07:55:40;100756.25;;;16.48;92.78
73267;BME280;61495;53.400;7.608;2023-08-08T07:58:05;100764.50;;;16.41;90.23
73267;BME280;61495;53.400;7.608;2023-08-08T08:00:31;100756.63;;;16.40;90.28
73267;BME280;61495;53.400;7.608;2023-08-08T08:02:56;100758.28;;;16.41;90.26
73267;BME280;61495;53.400;7.608;2023-08-08T08:05:21;100757.53;;;16.45;89.26
73267;BME280;61495;53.400;7.608;2023-08-08T08:07:47;100767.06;;;16.48;88.33
73267;BME280;61495;53.400;7.608;2023-08-08T08:10:13;100782.31;;;16.54;88.31
73267;BME280;61495;53.400;7.608;2023-08-08T08:12:40;100763.69;;;16.74;88.56
73267;BME280;61495;53.400;7.608;2023-08-08T08:15:08;100771.03;;;16.95;88.39
73267;BME280;61495;53.400;7.608;2023-08-08T08:17:34;100752.44;;;17.04;86.29
73267;BME280;61495;53.400;7.608;2023-08-08T08:20:00;100759.00;;;17.30;87.89
73267;BME280;61495;53.400;7.608;2023-08-08T08:22:31;100754.63;;;17.50;86.21
73267;BME280;61495;53.400;7.608;2023-08-08T08:24:56;100756.19;;;17.68;85.16
73267;BME280;61495;53.400;7.608;2023-08-08T08:27:22;100770.81;;;17.94;82.54
73267;BME280;61495;53.400;7.608;2023-08-08T08:29:47;100772.22;;;17.96;82.17
73267;BME280;61495;53.400;7.608;2023-08-08T08:32:13;100768.88;;;17.89;80.42
73267;BME280;61495;53.400;7.608;2023-08-08T08:34:40;100765.31;;;17.84;79.86
73267;BME280;61495;53.400;7.608;2023-08-08T08:37:05;100767.06;;;17.73;78.56
73267;BME280;61495;53.400;7.608;2023-08-08T08:39:32;100774.28;;;17.62;79.33
73267;BME280;61495;53.400;7.608;2023-08-08T08:41:59;100789.16;;;17.60;79.81
73267;BME280;61495;53.400;7.608;2023-08-08T08:44:32;100785.97;;;17.63;80.49
73267;BME280;61495;53.400;7.608;2023-08-08T08:47:01;100779.44;;;17.64;80.11
73267;BME280;61495;53.400;7.608;2023-08-08T08:49:33;100774.09;;;17.69;81.20
73267;BME280;61495;53.400;7.608;2023-08-08T08:52:06;100778.72;;;18.00;82.83
73267;BME280;61495;53.400;7.608;2023-08-08T08:54:32;100776.69;;;18.12;81.93
73267;BME280;61495;53.400;7.608;2023-08-08T08:57:00;100790.94;;;18.03;81.82
73267;BME280;61495;53.400;7.608;2023-08-08T08:59:25;100778.81;;;17.79;82.10
73267;BME280;61495;53.400;7.608;2023-08-08T09:01:51;100786.88;;;17.73;83.14
73267;BME280;61495;53.400;7.608;2023-08-08T09:04:19;100769.06;;;17.56;83.18
73267;BME280;61495;53.400;7.608;2023-08-08T09:06:46;100770.38;;;17.53;84.06
73267;BME280;61495;53.400;7.608;2023-08-08T09:09:14;100771.44;;;17.74;87.78
73267;BME280;61495;53.400;7.608;2023-08-08T09:11:43;100757.00;;;17.95;88.41
73267;BME280;61495;53.400;7.608;2023-08-08T09:14:20;100768.47;;;18.02;88.58
73267;BME280;61495;53.400;7.608;2023-08-08T09:16:47;100763.72;;;18.19;87.52
73267;BME280;61495;53.400;7.608;2023-08-08T09:19:14;100770.19;;;18.13;85.23
73267;BME280;61495;53.400;7.608;2023-08-08T09:21:39;100759.75;;;18.00;84.55
73267;BME280;61495;53.400;7.608;2023-08-08T09:24:05;100766.63;;;17.81;81.54
73267;BME280;61495;53.400;7.608;2023-08-08T09:26:32;100768.56;;;17.86;83.30
73267;BME280;61495;53.400;7.608;2023-08-08T09:28:57;100756.50;;;17.98;82.63
73267;BME280;61495;53.400;7.608;2023-08-08T09:31:25;100755.47;;;18.04;81.56
73267;BME280;61495;53.400;7.608;2023-08-08T09:33:53;100765.31;;;18.15;81.44
73267;BME280;61495;53.400;7.608;2023-08-08T09:36:18;100771.47;;;18.38;81.26
73267;BME280;61495;53.400;7.608;2023-08-08T09:38:45;100756.41;;;18.52;80.69
73267;BME280;61495;53.400;7.608;2023-08-08T09:41:11;100779.28;;;18.66;78.45
73267;BME280;61495;53.400;7.608;2023-08-08T09:43:37;100770.59;;;18.64;77.38
73267;BME280;61495;53.400;7.608;2023-08-08T09:46:03;100769.75;;;18.58;77.75
73267;BME280;61495;53.400;7.608;2023-08-08T09:48:32;100784.06;;;18.49;77.62
73267;BME280;61495;53.400;7.608;2023-08-08T09:50:58;100776.06;;;18.37;77.24
73267;BME280;61495;53.400;7.608;2023-08-08T09:53:29;100778.22;;;18.35;77.42
73267;BME280;61495;53.400;7.608;2023-08-08T09:55:54;100789.53;;;18.27;77.23
73267;BME280;61495;53.400;7.608;2023-08-08T09:58:21;100790.28;;;18.17;77.42
73267;BME280;61495;53.400;7.608;2023-08-08T10:01:09;100802.09;;;18.06;76.76
73267;BME280;61495;53.400;7.608;2023-08-08T10:03:35;100808.84;;;17.99;77.42
73267;BME280;61495;53.400;7.608;2023-08-08T10:06:03;100786.75;;;18.17;80.11
73267;BME280;61495;53.400;7.608;2023-08-08T10:08:28;100792.31;;;18.32;80.00
73267;BME280;61495;53.400;7.608;2023-08-08T10:10:55;100798.50;;;18.27;78.20
73267;BME280;61495;53.400;7.608;2023-08-08T10:13:25;100785.13;;;18.16;77.91
73267;BME280;61495;53.400;7.608;2023-08-08T10:15:52;100787.34;;;18.24;79.27
73267;BME280;61495;53.400;7.608;2023-08-08T10:18:21;100779.25;;;18.56;80.42
73267;BME280;61495;53.400;7.608;2023-08-08T10:20:48;100782.41;;;18.84;80.29
73267;BME280;61495;53.400;7.608;2023-08-08T10:23:18;100767.56;;;19.02;80.55
73267;BME280;61495;53.400;7.608;2023-08-08T10:25:51;100777.13;;;19.15;80.71
73267;BME280;61495;53.400;7.608;2023-08-08T10:28:19;100771.50;;;19.31;79.50
73267;BME280;61495;53.400;7.608;2023-08-08T10:30:46;100795.41;;;19.29;78.05
73267;BME280;61495;53.400;7.608;2023-08-08T10:33:17;100764.09;;;19.17;74.29
73267;BME280;61495;53.400;7.608;2023-08-08T10:38:22;100771.94;;;19.08;72.26
73267;BME280;61495;53.400;7.608;2023-08-08T10:40:48;100768.63;;;18.96;72.02
73267;BME280;61495;53.400;7.608;2023-08-08T10:43:25;100771.09;;;19.03;72.54
73267;BME280;61495;53.400;7.608;2023-08-08T10:45:52;100764.91;;;19.17;72.33
73267;BME280;61495;53.400;7.608;2023-08-08T10:48:17;100771.44;;;19.21;72.23
73267;BME280;61495;53.400;7.608;2023-08-08T10:50:46;100771.28;;;19.43;74.01
73267;BME280;61495;53.400;7.608;2023-08-08T10:53:12;100770.38;;;19.27;70.49
73267;BME280;61495;53.400;7.608;2023-08-08T10:55:38;100768.94;;;19.10;69.08
73267;BME280;61495;53.400;7.608;2023-08-08T10:58:13;100773.03;;;19.12;69.77
73267;BME280;61495;53.400;7.608;2023-08-08T11:00:45;100767.59;;;19.12;70.50
73267;BME280;61495;53.400;7.608;2023-08-08T11:03:12;100775.25;;;19.20;70.61
73267;BME280;61495;53.400;7.608;2023-08-08T11:05:38;100747.84;;;19.27;70.14
73267;BME280;61495;53.400;7.608;2023-08-08T11:08:05;100759.56;;;19.37;70.39
73267;BME280;61495;53.400;7.608;2023-08-08T11:10:40;100752.59;;;19.67;72.36
73267;BME280;61495;53.400;7.608;2023-08-08T11:13:08;100756.69;;;19.69;68.20
73267;BME280;61495;53.400;7.608;2023-08-08T11:15:34;100767.56;;;19.69;67.61
73267;BME280;61495;53.400;7.608;2023-08-08T11:18:01;100761.03;;;19.65;63.93
73267;BME280;61495;53.400;7.608;2023-08-08T11:20:32;100768.91;;;19.67;65.73
73267;BME280;61495;53.400;7.608;2023-08-08T11:22:59;100762.97;;;19.80;66.77
73267;BME280;61495;53.400;7.608;2023-08-08T11:25:26;100770.03;;;19.81;65.37
73267;BME280;61495;53.400;7.608;2023-08-08T11:27:53;100764.31;;;19.87;65.25
73267;BME280;61495;53.400;7.608;2023-08-08T11:30:19;100763.25;;;19.93;64.08
73267;BME280;61495;53.400;7.608;2023-08-08T11:32:46;100774.13;;;19.93;63.27
73267;BME280;61495;53.400;7.608;2023-08-08T11:35:15;100768.69;;;19.93;63.64
73267;BME280;61495;53.400;7.608;2023-08-08T11:37:41;100762.97;;;20.05;63.67
73267;BME280;61495;53.400;7.608;2023-08-08T11:40:08;100764.63;;;20.11;64.44
73267;BME280;61495;53.400;7.608;2023-08-08T11:42:34;100771.69;;;20.22;65.41
73267;BME280;61495;53.400;7.608;2023-08-08T11:45:00;100764.09;;;20.29;64.35
73267;BME280;61495;53.400;7.608;2023-08-08T11:47:25;100764.09;;;20.34;63.28
73267;BME280;61495;53.400;7.608;2023-08-08T11:49:51;100774.19;;;20.39;62.48
73267;BME280;61495;53.400;7.608;2023-08-08T11:52:19;100778.56;;;20.40;63.01
73267;BME280;61495;53.400;7.608;2023-08-08T11:54:51;100779.34;;;20.50;62.20
73267;BME280;61495;53.400;7.608;2023-08-08T11:57:17;100790.22;;;20.66;63.57
73267;BME280;61495;53.400;7.608;2023-08-08T11:59:43;100798.13;;;20.52;61.51
73267;BME280;61495;53.400;7.608;2023-08-08T12:02:18;100795.66;;;20.56;62.49
73267;BME280;61495;53.400;7.608;2023-08-08T12:04:45;100779.34;;;20.61;61.59
73267;BME280;61495;53.400;7.608;2023-08-08T12:07:11;100778.22;;;20.62;61.78
73267;BME280;61495;53.400;7.608;2023-08-08T12:09:39;100770.06;;;20.62;61.66
73267;BME280;61495;53.400;7.608;2023-08-08T12:12:05;100787.47;;;20.81;63.29
73267;BME280;61495;53.400;7.608;2023-08-08T12:14:36;100769.47;;;20.85;62.84
73267;BME280;61495;53.400;7.608;2023-08-08T12:17:02;100777.09;;;20.88;61.68
73267;BME280;61495;53.400;7.608;2023-08-08T12:19:28;100794.56;;;20.77;60.41
73267;BME280;61495;53.400;7.608;2023-08-08T12:21:54;100790.69;;;20.98;63.05
73267;BME280;61495;53.400;7.608;2023-08-08T12:24:20;100783.59;;;20.97;60.97
73267;BME280;61495;53.400;7.608;2023-08-08T12:26:47;100786.06;;;20.93;60.07
73267;BME280;61495;53.400;7.608;2023-08-08T12:29:13;100790.41;;;20.99;60.12
73267;BME280;61495;53.400;7.608;2023-08-08T12:31:39;100783.59;;;21.07;60.61
73267;BME280;61495;53.400;7.608;2023-08-08T12:34:05;100785.25;;;21.08;60.87
73267;BME280;61495;53.400;7.608;2023-08-08T12:36:31;100797.75;;;21.19;60.94
73267;BME280;61495;53.400;7.608;2023-08-08T12:38:57;100788.47;;;21.15;60.18
73267;BME280;61495;53.400;7.608;2023-08-08T12:41:24;100791.50;;;21.09;59.93
73267;BME280;61495;53.400;7.608;2023-08-08T12:43:52;100793.38;;;21.18;61.02
73267;BME280;61495;53.400;7.608;2023-08-08T12:46:18;100789.53;;;21.24;61.04
73267;BME280;61495;53.400;7.608;2023-08-08T12:48:45;100792.53;;;21.28;61.42
73267;BME280;61495;53.400;7.608;2023-08-08T12:51:10;100808.91;;;21.18;58.31